sensor_id;sensor_type;location;lat;lon;timestamp;temperature;humidity
79187;SHT31;68762;51.980;5.646;2024-02-21T00:00:52;11.9;69.5
79187;SHT31;68762;51.980;5.646;2024-02-21T00:03:20;11.9;69.4
79187;SHT31;68762;51.980;5.646;2024-02-21T00:05:49;11.9;69.7
79187;SHT31;68762;51.980;5.646;2024-02-21T00:08:18;11.9;69.6
79187;SHT31;68762;51.980;5.646;2024-02-21T00:10:46;11.9;69.6
79187;SHT31;68762;51.980;5.646;2024-02-21T00:13:15;11.9;69.4
79187;SHT31;68762;51.980;5.646;2024-02-21T00:15:44;11.9;69.1
79187;SHT31;68762;51.980;5.646;2024-02-21T00:18:12;11.9;69.4
79187;SHT31;68762;51.980;5.646;2024-02-21T00:20:41;11.9;69.4
79187;SHT31;68762;51.980;5.646;2024-02-21T00:23:10;11.9;69.4
79187;SHT31;68762;51.980;5.646;2024-02-21T00:25:38;11.9;69.4
79187;SHT31;68762;51.980;5.646;2024-02-21T00:28:07;11.9;69.4
79187;SHT31;68762;51.980;5.646;2024-02-21T00:30:36;11.9;69.3
79187;SHT31;68762;51.980;5.646;2024-02-21T00:33:05;11.9;69.4
79187;SHT31;68762;51.980;5.646;2024-02-21T00:35:35;11.9;69.2
79187;SHT31;68762;51.980;5.646;2024-02-21T00:38:05;11.9;69.0
79187;SHT31;68762;51.980;5.646;2024-02-21T00:40:34;11.9;69.2
79187;SHT31;68762;51.980;5.646;2024-02-21T00:43:03;11.9;69.2
79187;SHT31;68762;51.980;5.646;2024-02-21T00:45:32;11.9;69.2
79187;SHT31;68762;51.980;5.646;2024-02-21T00:48:01;11.9;69.2
79187;SHT31;68762;51.980;5.646;2024-02-21T00:50:29;11.9;69.2
79187;SHT31;68762;51.980;5.646;2024-02-21T00:52:58;11.9;69.0
79187;SHT31;68762;51.980;5.646;2024-02-21T00:55:27;11.9;69.3
79187;SHT31;68762;51.980;5.646;2024-02-21T00:57:55;11.9;69.0
79187;SHT31;68762;51.980;5.646;2024-02-21T01:00:24;11.9;69.2
79187;SHT31;68762;51.980;5.646;2024-02-21T01:02:52;11.9;69.1
79187;SHT31;68762;51.980;5.646;2024-02-21T01:05:21;11.9;69.2
79187;SHT31;68762;51.980;5.646;2024-02-21T01:07:50;11.9;69.2
79187;SHT31;68762;51.980;5.646;2024-02-21T01:10:18;11.9;69.0
79187;SHT31;68762;51.980;5.646;2024-02-21T01:12:49;11.9;68.8
79187;SHT31;68762;51.980;5.646;2024-02-21T01:15:17;11.9;68.9
79187;SHT31;68762;51.980;5.646;2024-02-21T01:17:46;11.9;68.9
79187;SHT31;68762;51.980;5.646;2024-02-21T01:20:16;11.9;68.7
79187;SHT31;68762;51.980;5.646;2024-02-21T01:22:46;11.9;69.1
79187;SHT31;68762;51.980;5.646;2024-02-21T01:25:15;11.9;68.9
79187;SHT31;68762;51.980;5.646;2024-02-21T01:27:44;11.9;69.3
79187;SHT31;68762;51.980;5.646;2024-02-21T01:30:13;11.9;69.5
79187;SHT31;68762;51.980;5.646;2024-02-21T01:32:41;11.9;69.3
79187;SHT31;68762;51.980;5.646;2024-02-21T01:35:10;11.9;69.2
79187;SHT31;68762;51.980;5.646;2024-02-21T01:37:39;11.9;69.2
79187;SHT31;68762;51.980;5.646;2024-02-21T01:40:08;11.9;69.1
79187;SHT31;68762;51.980;5.646;2024-02-21T01:42:39;11.9;68.9
79187;SHT31;68762;51.980;5.646;2024-02-21T01:45:09;12.0;68.9
79187;SHT31;68762;51.980;5.646;2024-02-21T01:47:38;12.0;68.9
79187;SHT31;68762;51.980;5.646;2024-02-21T01:50:07;12.0;68.7
79187;SHT31;68762;51.980;5.646;2024-02-21T01:52:37;11.9;68.7
79187;SHT31;68762;51.980;5.646;2024-02-21T01:55:08;11.9;68.8
79187;SHT31;68762;51.980;5.646;2024-02-21T01:57:40;11.9;68.9
79187;SHT31;68762;51.980;5.646;2024-02-21T02:00:10;11.9;69.0
79187;SHT31;68762;51.980;5.646;2024-02-21T02:02:40;11.9;69.1
79187;SHT31;68762;51.980;5.646;2024-02-21T02:05:11;11.9;68.8
79187;SHT31;68762;51.980;5.646;2024-02-21T02:07:40;11.9;68.9
79187;SHT31;68762;51.980;5.646;2024-02-21T02:10:09;11.9;69.0
79187;SHT31;68762;51.980;5.646;2024-02-21T02:12:38;11.9;68.9
79187;SHT31;68762;51.980;5.646;2024-02-21T02:15:07;11.9;69.0
79187;SHT31;68762;51.980;5.646;2024-02-21T02:17:38;11.9;69.0
79187;SHT31;68762;51.980;5.646;2024-02-21T02:20:07;11.9;68.9
79187;SHT31;68762;51.980;5.646;2024-02-21T02:22:37;11.9;68.8
79187;SHT31;68762;51.980;5.646;2024-02-21T02:25:07;11.9;68.9
79187;SHT31;68762;51.980;5.646;2024-02-21T02:27:43;11.9;68.8
79187;SHT31;68762;51.980;5.646;2024-02-21T02:30:13;11.9;68.8
79187;SHT31;68762;51.980;5.646;2024-02-21T02:32:45;11.9;68.9
79187;SHT31;68762;51.980;5.646;2024-02-21T02:35:14;11.9;68.9
79187;SHT31;68762;51.980;5.646;2024-02-21T02:37:49;11.9;68.8
79187;SHT31;68762;51.980;5.646;2024-02-21T02:40:18;11.9;68.9
79187;SHT31;68762;51.980;5.646;2024-02-21T02:42:48;11.9;68.9
79187;SHT31;68762;51.980;5.646;2024-02-21T02:45:18;11.8;68.8
79187;SHT31;68762;51.980;5.646;2024-02-21T02:47:47;11.8;69.1
79187;SHT31;68762;51.980;5.646;2024-02-21T02:50:16;11.8;69.0
79187;SHT31;68762;51.980;5.646;2024-02-21T02:52:44;11.8;69.2
79187;SHT31;68762;51.980;5.646;2024-02-21T02:55:13;11.8;68.9
79187;SHT31;68762;51.980;5.646;2024-02-21T02:57:42;11.8;69.0
79187;SHT31;68762;51.980;5.646;2024-02-21T03:00:12;11.8;69.3
79187;SHT31;68762;51.980;5.646;2024-02-21T03:02:42;11.8;69.1
79187;SHT31;68762;51.980;5.646;2024-02-21T03:05:17;11.8;68.9
79187;SHT31;68762;51.980;5.646;2024-02-21T03:07:46;11.8;69.1
79187;SHT31;68762;51.980;5.646;2024-02-21T03:10:15;11.8;69.2
79187;SHT31;68762;51.980;5.646;2024-02-21T03:12:44;11.8;69.2
79187;SHT31;68762;51.980;5.646;2024-02-21T03:15:14;11.8;69.0
79187;SHT31;68762;51.980;5.646;2024-02-21T03:17:42;11.8;68.9
79187;SHT31;68762;51.980;5.646;2024-02-21T03:20:11;11.8;68.8
79187;SHT31;68762;51.980;5.646;2024-02-21T03:22:41;11.8;68.9
79187;SHT31;68762;51.980;5.646;2024-02-21T03:25:10;11.8;68.8
79187;SHT31;68762;51.980;5.646;2024-02-21T03:27:40;11.8;69.1
79187;SHT31;68762;51.980;5.646;2024-02-21T03:30:10;11.8;69.0
79187;SHT31;68762;51.980;5.646;2024-02-21T03:32:39;11.8;69.3
79187;SHT31;68762;51.980;5.646;2024-02-21T03:35:07;11.8;69.4
79187;SHT31;68762;51.980;5.646;2024-02-21T03:37:36;11.8;69.3
79187;SHT31;68762;51.980;5.646;2024-02-21T03:40:08;11.8;69.4
79187;SHT31;68762;51.980;5.646;2024-02-21T03:42:37;11.8;69.4
79187;SHT31;68762;51.980;5.646;2024-02-21T03:45:07;11.8;69.4
79187;SHT31;68762;51.980;5.646;2024-02-21T03:47:36;11.8;69.5
79187;SHT31;68762;51.980;5.646;2024-02-21T03:50:05;11.8;69.6
79187;SHT31;68762;51.980;5.646;2024-02-21T03:52:34;11.8;69.5
79187;SHT31;68762;51.980;5.646;2024-02-21T03:55:02;11.8;69.5
79187;SHT31;68762;51.980;5.646;2024-02-21T03:57:31;11.8;69.6
79187;SHT31;68762;51.980;5.646;2024-02-21T04:00:00;11.8;69.5
79187;SHT31;68762;51.980;5.646;2024-02-21T04:02:30;11.8;69.6
79187;SHT31;68762;51.980;5.646;2024-02-21T04:04:58;11.8;69.5
79187;SHT31;68762;51.980;5.646;2024-02-21T04:07:27;11.8;69.6
79187;SHT31;68762;51.980;5.646;2024-02-21T04:09:55;11.8;69.6
79187;SHT31;68762;51.980;5.646;2024-02-21T04:12:24;11.8;69.6
79187;SHT31;68762;51.980;5.646;2024-02-21T04:14:53;11.7;69.7
79187;SHT31;68762;51.980;5.646;2024-02-21T04:17:22;11.7;69.7
79187;SHT31;68762;51.980;5.646;2024-02-21T04:20:01;11.7;69.8
79187;SHT31;68762;51.980;5.646;2024-02-21T04:22:32;11.7;69.9
79187;SHT31;68762;51.980;5.646;2024-02-21T04:25:01;11.7;69.9
79187;SHT31;68762;51.980;5.646;2024-02-21T04:27:29;11.7;69.9
79187;SHT31;68762;51.980;5.646;2024-02-21T04:29:58;11.7;69.9
79187;SHT31;68762;51.980;5.646;2024-02-21T04:32:26;11.7;70.0
79187;SHT31;68762;51.980;5.646;2024-02-21T04:34:55;11.7;70.0
79187;SHT31;68762;51.980;5.646;2024-02-21T04:37:24;11.6;69.9
79187;SHT31;68762;51.980;5.646;2024-02-21T04:39:53;11.6;70.1
79187;SHT31;68762;51.980;5.646;2024-02-21T04:42:21;11.6;70.1
79187;SHT31;68762;51.980;5.646;2024-02-21T04:44:50;11.6;70.1
79187;SHT31;68762;51.980;5.646;2024-02-21T04:47:19;11.6;70.1
79187;SHT31;68762;51.980;5.646;2024-02-21T04:49:50;11.6;70.0
79187;SHT31;68762;51.980;5.646;2024-02-21T04:52:19;11.6;70.2
79187;SHT31;68762;51.980;5.646;2024-02-21T04:54:50;11.6;70.2
79187;SHT31;68762;51.980;5.646;2024-02-21T04:57:18;11.6;70.1
79187;SHT31;68762;51.980;5.646;2024-02-21T04:59:47;11.6;70.0
79187;SHT31;68762;51.980;5.646;2024-02-21T05:02:15;11.6;70.1
79187;SHT31;68762;51.980;5.646;2024-02-21T05:04:45;11.6;70.1
79187;SHT31;68762;51.980;5.646;2024-02-21T05:07:14;11.5;70.1
79187;SHT31;68762;51.980;5.646;2024-02-21T05:09:43;11.5;70.2
79187;SHT31;68762;51.980;5.646;2024-02-21T05:12:12;11.5;70.4
79187;SHT31;68762;51.980;5.646;2024-02-21T05:14:41;11.5;70.4
79187;SHT31;68762;51.980;5.646;2024-02-21T05:17:09;11.5;70.3
79187;SHT31;68762;51.980;5.646;2024-02-21T05:19:38;11.5;70.3
79187;SHT31;68762;51.980;5.646;2024-02-21T05:22:07;11.5;70.4
79187;SHT31;68762;51.980;5.646;2024-02-21T05:24:35;11.5;70.4
79187;SHT31;68762;51.980;5.646;2024-02-21T05:27:04;11.5;70.4
79187;SHT31;68762;51.980;5.646;2024-02-21T05:29:33;11.4;70.3
79187;SHT31;68762;51.980;5.646;2024-02-21T05:32:02;11.4;70.4
79187;SHT31;68762;51.980;5.646;2024-02-21T05:34:31;11.4;70.5
79187;SHT31;68762;51.980;5.646;2024-02-21T05:36:59;11.4;70.5
79187;SHT31;68762;51.980;5.646;2024-02-21T05:39:28;11.4;70.6
79187;SHT31;68762;51.980;5.646;2024-02-21T05:41:57;11.4;70.6
79187;SHT31;68762;51.980;5.646;2024-02-21T05:44:25;11.4;70.8
79187;SHT31;68762;51.980;5.646;2024-02-21T05:46:56;11.4;70.9
79187;SHT31;68762;51.980;5.646;2024-02-21T05:49:25;11.4;70.8
79187;SHT31;68762;51.980;5.646;2024-02-21T05:51:53;11.3;70.9
79187;SHT31;68762;51.980;5.646;2024-02-21T05:54:22;11.3;70.9
79187;SHT31;68762;51.980;5.646;2024-02-21T05:56:50;11.3;70.8
79187;SHT31;68762;51.980;5.646;2024-02-21T05:59:19;11.3;70.8
79187;SHT31;68762;51.980;5.646;2024-02-21T06:01:56;11.3;70.9
79187;SHT31;68762;51.980;5.646;2024-02-21T06:04:26;11.3;70.9
79187;SHT31;68762;51.980;5.646;2024-02-21T06:06:54;11.3;71.0
79187;SHT31;68762;51.980;5.646;2024-02-21T06:09:23;11.3;71.1
79187;SHT31;68762;51.980;5.646;2024-02-21T06:11:51;11.3;71.0
79187;SHT31;68762;51.980;5.646;2024-02-21T06:14:20;11.2;71.2
79187;SHT31;68762;51.980;5.646;2024-02-21T06:16:49;11.2;71.2
79187;SHT31;68762;51.980;5.646;2024-02-21T06:19:17;11.2;71.1
79187;SHT31;68762;51.980;5.646;2024-02-21T06:21:46;11.2;71.1
79187;SHT31;68762;51.980;5.646;2024-02-21T06:24:15;11.2;71.1
79187;SHT31;68762;51.980;5.646;2024-02-21T06:26:43;11.2;71.2
79187;SHT31;68762;51.980;5.646;2024-02-21T06:29:12;11.2;71.1
79187;SHT31;68762;51.980;5.646;2024-02-21T06:31:42;11.2;71.1
79187;SHT31;68762;51.980;5.646;2024-02-21T06:34:10;11.2;71.1
79187;SHT31;68762;51.980;5.646;2024-02-21T06:36:39;11.2;71.1
79187;SHT31;68762;51.980;5.646;2024-02-21T06:39:07;11.2;71.2
79187;SHT31;68762;51.980;5.646;2024-02-21T06:41:38;11.2;71.1
79187;SHT31;68762;51.980;5.646;2024-02-21T06:44:07;11.2;71.1
79187;SHT31;68762;51.980;5.646;2024-02-21T06:46:35;11.2;71.1
79187;SHT31;68762;51.980;5.646;2024-02-21T06:49:04;11.2;71.1
79187;SHT31;68762;51.980;5.646;2024-02-21T06:51:33;11.2;71.1
79187;SHT31;68762;51.980;5.646;2024-02-21T06:54:05;11.2;71.1
79187;SHT31;68762;51.980;5.646;2024-02-21T06:56:34;11.2;71.1
79187;SHT31;68762;51.980;5.646;2024-02-21T06:59:03;11.2;71.2
79187;SHT31;68762;51.980;5.646;2024-02-21T07:01:32;11.2;70.9
79187;SHT31;68762;51.980;5.646;2024-02-21T07:04:01;11.2;70.8
79187;SHT31;68762;51.980;5.646;2024-02-21T07:06:29;11.2;70.8
79187;SHT31;68762;51.980;5.646;2024-02-21T07:08:58;11.2;70.7
79187;SHT31;68762;51.980;5.646;2024-02-21T07:11:27;11.2;70.6
79187;SHT31;68762;51.980;5.646;2024-02-21T07:13:55;11.2;70.7
79187;SHT31;68762;51.980;5.646;2024-02-21T07:16:24;11.2;70.7
79187;SHT31;68762;51.980;5.646;2024-02-21T07:18:53;11.2;70.4
79187;SHT31;68762;51.980;5.646;2024-02-21T07:21:21;11.2;70.4
79187;SHT31;68762;51.980;5.646;2024-02-21T07:23:50;11.2;70.3
79187;SHT31;68762;51.980;5.646;2024-02-21T07:26:18;11.2;70.3
79187;SHT31;68762;51.980;5.646;2024-02-21T07:28:48;11.2;70.1
79187;SHT31;68762;51.980;5.646;2024-02-21T07:31:16;11.2;70.2
79187;SHT31;68762;51.980;5.646;2024-02-21T07:33:45;11.2;70.1
79187;SHT31;68762;51.980;5.646;2024-02-21T07:36:15;11.2;70.1
79187;SHT31;68762;51.980;5.646;2024-02-21T07:38:48;11.2;70.2
79187;SHT31;68762;51.980;5.646;2024-02-21T07:41:17;11.3;70.1
79187;SHT31;68762;51.980;5.646;2024-02-21T07:43:46;11.3;70.0
79187;SHT31;68762;51.980;5.646;2024-02-21T07:46:15;11.3;69.9
79187;SHT31;68762;51.980;5.646;2024-02-21T07:48:45;11.3;70.0
79187;SHT31;68762;51.980;5.646;2024-02-21T07:51:14;11.3;69.9
79187;SHT31;68762;51.980;5.646;2024-02-21T07:53:44;11.3;70.0
79187;SHT31;68762;51.980;5.646;2024-02-21T07:56:15;11.3;69.8
79187;SHT31;68762;51.980;5.646;2024-02-21T07:58:44;11.3;69.7
79187;SHT31;68762;51.980;5.646;2024-02-21T08:01:20;11.3;69.8
79187;SHT31;68762;51.980;5.646;2024-02-21T08:03:48;11.3;69.8
79187;SHT31;68762;51.980;5.646;2024-02-21T08:06:17;11.3;69.6
79187;SHT31;68762;51.980;5.646;2024-02-21T08:08:46;11.3;69.5
79187;SHT31;68762;51.980;5.646;2024-02-21T08:11:14;11.3;69.7
79187;SHT31;68762;51.980;5.646;2024-02-21T08:13:43;11.3;69.5
79187;SHT31;68762;51.980;5.646;2024-02-21T08:16:12;11.3;69.6
79187;SHT31;68762;51.980;5.646;2024-02-21T08:18:40;11.3;69.6
79187;SHT31;68762;51.980;5.646;2024-02-21T08:21:10;11.3;69.3
79187;SHT31;68762;51.980;5.646;2024-02-21T08:23:39;11.3;69.2
79187;SHT31;68762;51.980;5.646;2024-02-21T08:26:07;11.3;69.3
79187;SHT31;68762;51.980;5.646;2024-02-21T08:28:36;11.4;69.2
79187;SHT31;68762;51.980;5.646;2024-02-21T08:31:07;11.4;68.9
79187;SHT31;68762;51.980;5.646;2024-02-21T08:33:35;11.4;69.0
79187;SHT31;68762;51.980;5.646;2024-02-21T08:36:04;11.4;68.6
79187;SHT31;68762;51.980;5.646;2024-02-21T08:38:34;11.4;68.5
79187;SHT31;68762;51.980;5.646;2024-02-21T08:41:04;11.4;68.5
79187;SHT31;68762;51.980;5.646;2024-02-21T08:43:33;11.4;68.8
79187;SHT31;68762;51.980;5.646;2024-02-21T08:46:02;11.4;68.9
79187;SHT31;68762;51.980;5.646;2024-02-21T08:48:31;11.4;68.5
79187;SHT31;68762;51.980;5.646;2024-02-21T08:51:00;11.4;68.5
79187;SHT31;68762;51.980;5.646;2024-02-21T08:53:29;11.5;68.3
79187;SHT31;68762;51.980;5.646;2024-02-21T08:55:58;11.5;68.1
79187;SHT31;68762;51.980;5.646;2024-02-21T08:58:27;11.5;68.4
79187;SHT31;68762;51.980;5.646;2024-02-21T09:00:56;11.5;68.3
79187;SHT31;68762;51.980;5.646;2024-02-21T09:03:24;11.5;68.4
79187;SHT31;68762;51.980;5.646;2024-02-21T09:05:53;11.5;68.1
79187;SHT31;68762;51.980;5.646;2024-02-21T09:08:22;11.5;68.5
79187;SHT31;68762;51.980;5.646;2024-02-21T09:10:50;11.5;68.3
79187;SHT31;68762;51.980;5.646;2024-02-21T09:13:19;11.5;68.5
79187;SHT31;68762;51.980;5.646;2024-02-21T09:15:49;11.6;68.0
79187;SHT31;68762;51.980;5.646;2024-02-21T09:18:18;11.6;68.0
79187;SHT31;68762;51.980;5.646;2024-02-21T09:20:48;11.6;67.8
79187;SHT31;68762;51.980;5.646;2024-02-21T09:23:17;11.6;67.7
79187;SHT31;68762;51.980;5.646;2024-02-21T09:25:46;11.6;67.7
79187;SHT31;68762;51.980;5.646;2024-02-21T09:28:14;11.6;67.9
79187;SHT31;68762;51.980;5.646;2024-02-21T09:30:43;11.6;67.6
79187;SHT31;68762;51.980;5.646;2024-02-21T09:33:12;11.7;67.7
79187;SHT31;68762;51.980;5.646;2024-02-21T09:35:41;11.7;67.8
79187;SHT31;68762;51.980;5.646;2024-02-21T09:38:09;11.7;67.7
79187;SHT31;68762;51.980;5.646;2024-02-21T09:40:38;11.7;67.3
79187;SHT31;68762;51.980;5.646;2024-02-21T09:43:09;11.8;67.2
79187;SHT31;68762;51.980;5.646;2024-02-21T09:45:38;11.8;67.4
79187;SHT31;68762;51.980;5.646;2024-02-21T09:48:25;11.8;67.0
79187;SHT31;68762;51.980;5.646;2024-02-21T09:50:56;11.8;67.6
79187;SHT31;68762;51.980;5.646;2024-02-21T09:53:27;11.9;67.5
79187;SHT31;68762;51.980;5.646;2024-02-21T09:55:58;11.9;67.0
79187;SHT31;68762;51.980;5.646;2024-02-21T09:58:27;11.9;66.2
79187;SHT31;68762;51.980;5.646;2024-02-21T10:00:56;11.9;66.5
79187;SHT31;68762;51.980;5.646;2024-02-21T10:03:26;11.9;66.6
79187;SHT31;68762;51.980;5.646;2024-02-21T10:05:57;12.0;65.8
79187;SHT31;68762;51.980;5.646;2024-02-21T10:08:27;12.0;66.4
79187;SHT31;68762;51.980;5.646;2024-02-21T10:10:57;12.0;66.6
79187;SHT31;68762;51.980;5.646;2024-02-21T10:13:29;12.0;66.7
79187;SHT31;68762;51.980;5.646;2024-02-21T10:16:05;12.0;66.2
79187;SHT31;68762;51.980;5.646;2024-02-21T10:18:35;12.1;66.2
79187;SHT31;68762;51.980;5.646;2024-02-21T10:21:05;12.1;66.2
79187;SHT31;68762;51.980;5.646;2024-02-21T10:23:44;12.1;66.4
79187;SHT31;68762;51.980;5.646;2024-02-21T10:26:15;12.2;66.5
79187;SHT31;68762;51.980;5.646;2024-02-21T10:28:43;12.2;66.8
79187;SHT31;68762;51.980;5.646;2024-02-21T10:31:23;12.2;66.6
79187;SHT31;68762;51.980;5.646;2024-02-21T10:33:56;12.2;66.4
79187;SHT31;68762;51.980;5.646;2024-02-21T10:36:25;12.3;66.9
79187;SHT31;68762;51.980;5.646;2024-02-21T10:38:55;12.3;66.8
79187;SHT31;68762;51.980;5.646;2024-02-21T10:41:24;12.3;67.3
79187;SHT31;68762;51.980;5.646;2024-02-21T10:43:54;12.3;67.3
79187;SHT31;68762;51.980;5.646;2024-02-21T10:46:24;12.3;67.2
79187;SHT31;68762;51.980;5.646;2024-02-21T10:49:04;12.3;67.5
79187;SHT31;68762;51.980;5.646;2024-02-21T10:51:37;12.3;67.2
79187;SHT31;68762;51.980;5.646;2024-02-21T10:54:16;12.3;67.5
79187;SHT31;68762;51.980;5.646;2024-02-21T10:56:50;12.3;67.7
79187;SHT31;68762;51.980;5.646;2024-02-21T10:59:20;12.3;67.5
79187;SHT31;68762;51.980;5.646;2024-02-21T11:01:49;12.3;67.9
79187;SHT31;68762;51.980;5.646;2024-02-21T11:04:19;12.3;68.1
79187;SHT31;68762;51.980;5.646;2024-02-21T11:06:48;12.3;67.7
79187;SHT31;68762;51.980;5.646;2024-02-21T11:09:17;12.3;67.6
79187;SHT31;68762;51.980;5.646;2024-02-21T11:11:46;12.3;67.2
79187;SHT31;68762;51.980;5.646;2024-02-21T11:14:20;12.3;67.1
79187;SHT31;68762;51.980;5.646;2024-02-21T11:16:49;12.4;67.1
79187;SHT31;68762;51.980;5.646;2024-02-21T11:19:22;12.4;66.9
79187;SHT31;68762;51.980;5.646;2024-02-21T11:21:52;12.4;66.9
79187;SHT31;68762;51.980;5.646;2024-02-21T11:24:28;12.4;66.5
79187;SHT31;68762;51.980;5.646;2024-02-21T11:27:11;12.4;66.2
79187;SHT31;68762;51.980;5.646;2024-02-21T11:29:43;12.4;66.2
79187;SHT31;68762;51.980;5.646;2024-02-21T11:32:15;12.4;66.0
79187;SHT31;68762;51.980;5.646;2024-02-21T11:34:54;12.4;66.0
79187;SHT31;68762;51.980;5.646;2024-02-21T11:37:28;12.4;65.8
79187;SHT31;68762;51.980;5.646;2024-02-21T11:39:59;12.4;65.7
79187;SHT31;68762;51.980;5.646;2024-02-21T11:42:30;12.3;65.6
79187;SHT31;68762;51.980;5.646;2024-02-21T11:45:00;12.3;65.8
79187;SHT31;68762;51.980;5.646;2024-02-21T11:47:30;12.3;65.5
79187;SHT31;68762;51.980;5.646;2024-02-21T11:49:59;12.3;65.4
79187;SHT31;68762;51.980;5.646;2024-02-21T11:52:27;12.3;65.8
79187;SHT31;68762;51.980;5.646;2024-02-21T11:54:56;12.3;65.0
79187;SHT31;68762;51.980;5.646;2024-02-21T11:57:29;12.3;65.0
79187;SHT31;68762;51.980;5.646;2024-02-21T11:59:58;12.3;65.1
79187;SHT31;68762;51.980;5.646;2024-02-21T12:02:27;12.3;65.2
79187;SHT31;68762;51.980;5.646;2024-02-21T12:04:56;12.3;65.3
79187;SHT31;68762;51.980;5.646;2024-02-21T12:07:25;12.3;65.0
79187;SHT31;68762;51.980;5.646;2024-02-21T12:09:58;12.3;65.4
79187;SHT31;68762;51.980;5.646;2024-02-21T12:12:27;12.3;65.5
79187;SHT31;68762;51.980;5.646;2024-02-21T12:14:59;12.4;65.3
79187;SHT31;68762;51.980;5.646;2024-02-21T12:17:28;12.4;65.3
79187;SHT31;68762;51.980;5.646;2024-02-21T12:19:56;12.5;64.9
79187;SHT31;68762;51.980;5.646;2024-02-21T12:22:25;12.6;64.6
79187;SHT31;68762;51.980;5.646;2024-02-21T12:24:55;12.6;64.4
79187;SHT31;68762;51.980;5.646;2024-02-21T12:27:23;12.7;64.2
79187;SHT31;68762;51.980;5.646;2024-02-21T12:29:53;12.7;63.7
79187;SHT31;68762;51.980;5.646;2024-02-21T12:32:21;12.7;63.9
79187;SHT31;68762;51.980;5.646;2024-02-21T12:34:50;12.8;63.9
79187;SHT31;68762;51.980;5.646;2024-02-21T12:37:19;12.8;64.0
79187;SHT31;68762;51.980;5.646;2024-02-21T12:39:48;12.8;63.5
79187;SHT31;68762;51.980;5.646;2024-02-21T12:42:16;12.9;62.9
79187;SHT31;68762;51.980;5.646;2024-02-21T12:44:45;12.9;62.7
79187;SHT31;68762;51.980;5.646;2024-02-21T12:47:14;12.9;63.1
79187;SHT31;68762;51.980;5.646;2024-02-21T12:49:47;12.9;63.1
79187;SHT31;68762;51.980;5.646;2024-02-21T12:52:15;12.9;62.9
79187;SHT31;68762;51.980;5.646;2024-02-21T12:54:44;13.0;62.8
79187;SHT31;68762;51.980;5.646;2024-02-21T12:57:13;13.0;63.1
79187;SHT31;68762;51.980;5.646;2024-02-21T12:59:43;13.0;62.9
79187;SHT31;68762;51.980;5.646;2024-02-21T13:02:11;13.0;62.2
79187;SHT31;68762;51.980;5.646;2024-02-21T13:04:40;13.0;62.5
79187;SHT31;68762;51.980;5.646;2024-02-21T13:07:09;13.0;62.3
79187;SHT31;68762;51.980;5.646;2024-02-21T13:09:37;13.1;62.0
79187;SHT31;68762;51.980;5.646;2024-02-21T13:12:07;13.1;62.2
79187;SHT31;68762;51.980;5.646;2024-02-21T13:14:36;13.1;62.2
79187;SHT31;68762;51.980;5.646;2024-02-21T13:17:05;13.1;61.9
79187;SHT31;68762;51.980;5.646;2024-02-21T13:19:34;13.1;62.2
79187;SHT31;68762;51.980;5.646;2024-02-21T13:22:03;13.1;62.2
79187;SHT31;68762;51.980;5.646;2024-02-21T13:24:31;13.1;62.4
79187;SHT31;68762;51.980;5.646;2024-02-21T13:27:00;13.1;62.5
79187;SHT31;68762;51.980;5.646;2024-02-21T13:29:29;13.1;61.9
79187;SHT31;68762;51.980;5.646;2024-02-21T13:31:58;13.2;62.1
79187;SHT31;68762;51.980;5.646;2024-02-21T13:34:27;13.2;62.3
79187;SHT31;68762;51.980;5.646;2024-02-21T13:36:56;13.2;62.2
79187;SHT31;68762;51.980;5.646;2024-02-21T13:39:25;13.2;62.2
79187;SHT31;68762;51.980;5.646;2024-02-21T13:41:54;13.2;62.0
79187;SHT31;68762;51.980;5.646;2024-02-21T13:44:24;13.2;61.7
79187;SHT31;68762;51.980;5.646;2024-02-21T13:46:53;13.2;61.5
79187;SHT31;68762;51.980;5.646;2024-02-21T13:49:22;13.2;61.4
79187;SHT31;68762;51.980;5.646;2024-02-21T13:51:50;13.2;61.7
79187;SHT31;68762;51.980;5.646;2024-02-21T13:54:21;13.2;61.5
79187;SHT31;68762;51.980;5.646;2024-02-21T13:56:49;13.2;61.5
79187;SHT31;68762;51.980;5.646;2024-02-21T13:59:18;13.2;61.2
79187;SHT31;68762;51.980;5.646;2024-02-21T14:01:47;13.2;61.6
79187;SHT31;68762;51.980;5.646;2024-02-21T14:04:15;13.2;61.7
79187;SHT31;68762;51.980;5.646;2024-02-21T14:06:44;13.2;61.1
79187;SHT31;68762;51.980;5.646;2024-02-21T14:09:13;13.2;61.1
79187;SHT31;68762;51.980;5.646;2024-02-21T14:11:41;13.2;61.2
79187;SHT31;68762;51.980;5.646;2024-02-21T14:14:12;13.2;61.0
79187;SHT31;68762;51.980;5.646;2024-02-21T14:16:41;13.2;61.1
79187;SHT31;68762;51.980;5.646;2024-02-21T14:19:10;13.2;61.1
79187;SHT31;68762;51.980;5.646;2024-02-21T14:21:39;13.2;61.1
79187;SHT31;68762;51.980;5.646;2024-02-21T14:24:07;13.2;61.4
79187;SHT31;68762;51.980;5.646;2024-02-21T14:26:37;13.2;61.7
79187;SHT31;68762;51.980;5.646;2024-02-21T14:29:07;13.2;61.5
79187;SHT31;68762;51.980;5.646;2024-02-21T14:31:36;13.2;61.2
79187;SHT31;68762;51.980;5.646;2024-02-21T14:34:04;13.2;60.4
79187;SHT31;68762;51.980;5.646;2024-02-21T14:36:43;13.2;59.9
79187;SHT31;68762;51.980;5.646;2024-02-21T14:39:12;13.2;59.7
79187;SHT31;68762;51.980;5.646;2024-02-21T14:41:41;13.2;60.1
79187;SHT31;68762;51.980;5.646;2024-02-21T14:44:12;13.2;60.3
79187;SHT31;68762;51.980;5.646;2024-02-21T14:46:46;13.2;59.9
79187;SHT31;68762;51.980;5.646;2024-02-21T14:49:15;13.2;59.9
79187;SHT31;68762;51.980;5.646;2024-02-21T14:51:45;13.2;59.9
79187;SHT31;68762;51.980;5.646;2024-02-21T14:54:14;13.2;60.7
79187;SHT31;68762;51.980;5.646;2024-02-21T14:56:42;13.2;60.6
79187;SHT31;68762;51.980;5.646;2024-02-21T14:59:13;13.1;61.2
79187;SHT31;68762;51.980;5.646;2024-02-21T15:01:43;13.1;61.2
79187;SHT31;68762;51.980;5.646;2024-02-21T15:04:13;13.0;61.5
79187;SHT31;68762;51.980;5.646;2024-02-21T15:06:42;13.0;62.4
79187;SHT31;68762;51.980;5.646;2024-02-21T15:09:11;12.9;62.7
79187;SHT31;68762;51.980;5.646;2024-02-21T15:11:40;12.8;63.3
79187;SHT31;68762;51.980;5.646;2024-02-21T15:14:09;12.8;63.2
79187;SHT31;68762;51.980;5.646;2024-02-21T15:16:38;12.7;64.1
79187;SHT31;68762;51.980;5.646;2024-02-21T15:19:07;12.6;65.1
79187;SHT31;68762;51.980;5.646;2024-02-21T15:21:36;12.6;64.8
79187;SHT31;68762;51.980;5.646;2024-02-21T15:24:04;12.5;65.2
79187;SHT31;68762;51.980;5.646;2024-02-21T15:26:33;12.4;65.9
79187;SHT31;68762;51.980;5.646;2024-02-21T15:29:02;12.3;66.3
79187;SHT31;68762;51.980;5.646;2024-02-21T15:31:32;12.2;66.6
79187;SHT31;68762;51.980;5.646;2024-02-21T15:34:00;12.1;67.9
79187;SHT31;68762;51.980;5.646;2024-02-21T15:36:29;12.0;68.3
79187;SHT31;68762;51.980;5.646;2024-02-21T15:38:58;11.9;68.9
79187;SHT31;68762;51.980;5.646;2024-02-21T15:41:28;11.9;69.5
79187;SHT31;68762;51.980;5.646;2024-02-21T15:43:57;11.8;70.0
79187;SHT31;68762;51.980;5.646;2024-02-21T15:46:26;11.7;69.7
79187;SHT31;68762;51.980;5.646;2024-02-21T15:48:55;11.7;70.2
79187;SHT31;68762;51.980;5.646;2024-02-21T15:51:25;11.6;71.1
79187;SHT31;68762;51.980;5.646;2024-02-21T15:53:54;11.6;71.6
79187;SHT31;68762;51.980;5.646;2024-02-21T15:56:23;11.5;71.8
79187;SHT31;68762;51.980;5.646;2024-02-21T15:58:55;11.5;71.5
79187;SHT31;68762;51.980;5.646;2024-02-21T16:01:24;11.4;71.9
79187;SHT31;68762;51.980;5.646;2024-02-21T16:03:53;11.4;72.7
79187;SHT31;68762;51.980;5.646;2024-02-21T16:06:25;11.4;72.6
79187;SHT31;68762;51.980;5.646;2024-02-21T16:08:54;11.3;72.3
79187;SHT31;68762;51.980;5.646;2024-02-21T16:11:23;11.3;72.4
79187;SHT31;68762;51.980;5.646;2024-02-21T16:13:52;11.3;73.0
79187;SHT31;68762;51.980;5.646;2024-02-21T16:16:21;11.2;73.6